sensor_id;sensor_type;location;lat;lon;timestamp;P1;durP1;ratioP1;P2;durP2;ratioP2
6864;SDS011;3471;49.678;8.388;2024-03-29T00:00:42;1291.55;;;999.90;;
6864;SDS011;3471;49.678;8.388;2024-03-29T00:03:10;1310.20;;;999.90;;
6864;SDS011;3471;49.678;8.388;2024-03-29T00:05:36;1283.27;;;999.90;;
6864;SDS011;3471;49.678;8.388;2024-03-29T00:08:05;1315.93;;;999.90;;
6864;SDS011;3471;49.678;8.388;2024-03-29T00:10:31;1317.60;;;999.90;;
6864;SDS011;3471;49.678;8.388;2024-03-29T00:12:58;1317.85;;;999.90;;
6864;SDS011;3471;49.678;8.388;2024-03-29T00:15:24;1339.57;;;999.90;;
6864;SDS011;3471;49.678;8.388;2024-03-29T00:17:50;1341.13;;;999.90;;
6864;SDS011;3471;49.678;8.388;2024-03-29T00:20:16;1325.90;;;999.90;;
6864;SDS011;3471;49.678;8.388;2024-03-29T00:22:41;1330.20;;;999.90;;
6864;SDS011;3471;49.678;8.388;2024-03-29T00:25:13;1288.30;;;999.90;;
6864;SDS011;3471;49.678;8.388;2024-03-29T00:27:39;1372.72;;;999.90;;
6864;SDS011;3471;49.678;8.388;2024-03-29T00:30:04;1352.17;;;999.90;;
6864;SDS011;3471;49.678;8.388;2024-03-29T00:32:31;1312.47;;;999.90;;
6864;SDS011;3471;49.678;8.388;2024-03-29T00:34:56;1329.93;;;999.90;;
6864;SDS011;3471;49.678;8.388;2024-03-29T00:37:23;1307.43;;;999.90;;
6864;SDS011;3471;49.678;8.388;2024-03-29T00:39:49;1328.10;;;999.90;;
6864;SDS011;3471;49.678;8.388;2024-03-29T00:42:15;1366.88;;;999.90;;
6864;SDS011;3471;49.678;8.388;2024-03-29T00:44:42;1313.30;;;999.90;;
6864;SDS011;3471;49.678;8.388;2024-03-29T00:47:08;1287.35;;;999.90;;
6864;SDS011;3471;49.678;8.388;2024-03-29T00:49:34;1283.13;;;999.90;;
6864;SDS011;3471;49.678;8.388;2024-03-29T00:52:01;1330.97;;;999.90;;
6864;SDS011;3471;49.678;8.388;2024-03-29T00:54:27;1368.35;;;999.90;;
6864;SDS011;3471;49.678;8.388;2024-03-29T00:56:53;1278.83;;;999.90;;
6864;SDS011;3471;49.678;8.388;2024-03-29T00:59:18;1310.95;;;999.90;;
6864;SDS011;3471;49.678;8.388;2024-03-29T01:01:45;1338.55;;;999.90;;
6864;SDS011;3471;49.678;8.388;2024-03-29T01:04:10;1310.78;;;999.90;;
6864;SDS011;3471;49.678;8.388;2024-03-29T01:06:37;1301.07;;;999.90;;
6864;SDS011;3471;49.678;8.388;2024-03-29T01:09:02;1316.57;;;999.90;;
6864;SDS011;3471;49.678;8.388;2024-03-29T01:11:29;1350.70;;;999.90;;
6864;SDS011;3471;49.678;8.388;2024-03-29T01:13:55;1335.80;;;999.90;;
6864;SDS011;3471;49.678;8.388;2024-03-29T01:16:21;1303.15;;;999.90;;
6864;SDS011;3471;49.678;8.388;2024-03-29T01:18:46;1321.17;;;999.90;;
6864;SDS011;3471;49.678;8.388;2024-03-29T01:21:12;1365.10;;;999.90;;
6864;SDS011;3471;49.678;8.388;2024-03-29T01:23:38;1297.13;;;999.90;;
6864;SDS011;3471;49.678;8.388;2024-03-29T01:26:04;1318.30;;;999.90;;
6864;SDS011;3471;49.678;8.388;2024-03-29T01:28:31;1280.25;;;999.90;;
6864;SDS011;3471;49.678;8.388;2024-03-29T01:30:56;1349.13;;;999.90;;
6864;SDS011;3471;49.678;8.388;2024-03-29T01:33:23;1317.18;;;999.90;;
6864;SDS011;3471;49.678;8.388;2024-03-29T01:35:49;1299.32;;;999.90;;
6864;SDS011;3471;49.678;8.388;2024-03-29T01:38:15;1316.47;;;999.90;;
6864;SDS011;3471;49.678;8.388;2024-03-29T01:40:41;1286.25;;;999.90;;
6864;SDS011;3471;49.678;8.388;2024-03-29T01:43:06;1317.93;;;999.90;;
6864;SDS011;3471;49.678;8.388;2024-03-29T01:45:34;1283.32;;;999.90;;
6864;SDS011;3471;49.678;8.388;2024-03-29T01:48:03;1315.20;;;999.90;;
6864;SDS011;3471;49.678;8.388;2024-03-29T01:50:29;1336.65;;;999.90;;
6864;SDS011;3471;49.678;8.388;2024-03-29T01:52:55;1315.13;;;999.90;;
6864;SDS011;3471;49.678;8.388;2024-03-29T01:55:21;1330.13;;;999.90;;
6864;SDS011;3471;49.678;8.388;2024-03-29T01:57:47;1285.25;;;999.90;;
6864;SDS011;3471;49.678;8.388;2024-03-29T02:00:13;1280.93;;;999.90;;
6864;SDS011;3471;49.678;8.388;2024-03-29T02:02:39;1303.70;;;999.90;;
6864;SDS011;3471;49.678;8.388;2024-03-29T02:05:05;1282.23;;;999.90;;
6864;SDS011;3471;49.678;8.388;2024-03-29T02:07:31;1343.60;;;999.90;;
6864;SDS011;3471;49.678;8.388;2024-03-29T02:10:03;1306.85;;;999.90;;
6864;SDS011;3471;49.678;8.388;2024-03-29T02:12:32;1322.00;;;999.90;;
6864;SDS011;3471;49.678;8.388;2024-03-29T02:14:58;1285.60;;;999.90;;
6864;SDS011;3471;49.678;8.388;2024-03-29T02:17:24;1345.88;;;999.90;;
6864;SDS011;3471;49.678;8.388;2024-03-29T02:19:50;1303.47;;;999.90;;
6864;SDS011;3471;49.678;8.388;2024-03-29T02:22:15;1320.45;;;999.90;;
6864;SDS011;3471;49.678;8.388;2024-03-29T02:24:44;1320.00;;;999.90;;
6864;SDS011;3471;49.678;8.388;2024-03-29T02:27:10;1345.30;;;999.90;;
6864;SDS011;3471;49.678;8.388;2024-03-29T02:29:36;1295.97;;;999.90;;
6864;SDS011;3471;49.678;8.388;2024-03-29T02:32:05;1335.43;;;999.90;;
6864;SDS011;3471;49.678;8.388;2024-03-29T02:34:30;1297.85;;;999.90;;
6864;SDS011;3471;49.678;8.388;2024-03-29T02:36:56;1359.40;;;999.90;;
6864;SDS011;3471;49.678;8.388;2024-03-29T02:39:22;1325.88;;;999.90;;
6864;SDS011;3471;49.678;8.388;2024-03-29T02:41:48;1323.03;;;999.90;;
6864;SDS011;3471;49.678;8.388;2024-03-29T02:44:13;1308.25;;;999.90;;
6864;SDS011;3471;49.678;8.388;2024-03-29T02:46:40;1318.15;;;999.90;;
6864;SDS011;3471;49.678;8.388;2024-03-29T02:49:07;1322.88;;;999.90;;
6864;SDS011;3471;49.678;8.388;2024-03-29T02:51:33;1287.35;;;999.90;;
6864;SDS011;3471;49.678;8.388;2024-03-29T02:53:58;1302.53;;;999.90;;
6864;SDS011;3471;49.678;8.388;2024-03-29T02:56:24;1355.47;;;999.90;;
6864;SDS011;3471;49.678;8.388;2024-03-29T02:58:49;1308.22;;;999.90;;
6864;SDS011;3471;49.678;8.388;2024-03-29T03:01:16;1326.88;;;999.90;;
6864;SDS011;3471;49.678;8.388;2024-03-29T03:03:42;1304.13;;;999.90;;
6864;SDS011;3471;49.678;8.388;2024-03-29T03:06:07;1315.37;;;999.90;;
6864;SDS011;3471;49.678;8.388;2024-03-29T03:08:33;1322.60;;;999.90;;
6864;SDS011;3471;49.678;8.388;2024-03-29T03:11:17;1298.10;;;999.90;;
6864;SDS011;3471;49.678;8.388;2024-03-29T03:13:43;1318.57;;;999.90;;
6864;SDS011;3471;49.678;8.388;2024-03-29T03:16:08;1332.90;;;999.90;;
6864;SDS011;3471;49.678;8.388;2024-03-29T03:18:34;1335.18;;;999.90;;
6864;SDS011;3471;49.678;8.388;2024-03-29T03:20:59;1320.07;;;999.90;;
6864;SDS011;3471;49.678;8.388;2024-03-29T03:23:25;1331.32;;;999.90;;
6864;SDS011;3471;49.678;8.388;2024-03-29T03:25:55;1318.38;;;999.90;;
6864;SDS011;3471;49.678;8.388;2024-03-29T03:28:22;1316.55;;;999.90;;
6864;SDS011;3471;49.678;8.388;2024-03-29T03:30:48;1328.00;;;999.90;;
6864;SDS011;3471;49.678;8.388;2024-03-29T03:33:14;1293.28;;;999.90;;
6864;SDS011;3471;49.678;8.388;2024-03-29T03:35:40;1317.20;;;999.90;;
6864;SDS011;3471;49.678;8.388;2024-03-29T03:38:09;1288.10;;;999.90;;
6864;SDS011;3471;49.678;8.388;2024-03-29T03:40:35;1345.80;;;999.90;;
6864;SDS011;3471;49.678;8.388;2024-03-29T03:43:02;1320.05;;;999.90;;
6864;SDS011;3471;49.678;8.388;2024-03-29T03:45:28;1338.88;;;999.90;;
6864;SDS011;3471;49.678;8.388;2024-03-29T03:47:54;1319.30;;;999.90;;
6864;SDS011;3471;49.678;8.388;2024-03-29T03:50:19;1333.20;;;999.90;;
6864;SDS011;3471;49.678;8.388;2024-03-29T03:52:45;1343.95;;;999.90;;
6864;SDS011;3471;49.678;8.388;2024-03-29T03:55:11;1323.85;;;999.90;;
6864;SDS011;3471;49.678;8.388;2024-03-29T03:57:36;1318.50;;;999.90;;
6864;SDS011;3471;49.678;8.388;2024-03-29T04:00:02;1328.20;;;999.90;;
6864;SDS011;3471;49.678;8.388;2024-03-29T04:02:29;1310.50;;;999.90;;
6864;SDS011;3471;49.678;8.388;2024-03-29T04:04:54;1332.57;;;999.90;;
6864;SDS011;3471;49.678;8.388;2024-03-29T04:07:20;1350.97;;;999.90;;
6864;SDS011;3471;49.678;8.388;2024-03-29T04:09:45;1311.68;;;999.90;;
6864;SDS011;3471;49.678;8.388;2024-03-29T04:12:11;1336.50;;;999.90;;
6864;SDS011;3471;49.678;8.388;2024-03-29T04:14:36;1315.70;;;999.90;;
6864;SDS011;3471;49.678;8.388;2024-03-29T04:17:02;1312.10;;;999.90;;
6864;SDS011;3471;49.678;8.388;2024-03-29T04:19:28;1346.50;;;999.90;;
6864;SDS011;3471;49.678;8.388;2024-03-29T04:21:53;1317.65;;;999.90;;
6864;SDS011;3471;49.678;8.388;2024-03-29T04:24:19;1323.93;;;999.90;;
6864;SDS011;3471;49.678;8.388;2024-03-29T04:26:44;1315.80;;;999.90;;
6864;SDS011;3471;49.678;8.388;2024-03-29T04:29:12;1342.55;;;999.90;;
6864;SDS011;3471;49.678;8.388;2024-03-29T04:31:37;1326.57;;;999.90;;
6864;SDS011;3471;49.678;8.388;2024-03-29T04:34:03;1298.78;;;999.90;;
6864;SDS011;3471;49.678;8.388;2024-03-29T04:36:29;1305.43;;;999.90;;
6864;SDS011;3471;49.678;8.388;2024-03-29T04:38:54;1320.07;;;999.90;;
6864;SDS011;3471;49.678;8.388;2024-03-29T04:41:20;1365.75;;;999.90;;
6864;SDS011;3471;49.678;8.388;2024-03-29T04:43:45;1301.00;;;999.90;;
6864;SDS011;3471;49.678;8.388;2024-03-29T04:46:11;1350.07;;;999.90;;
6864;SDS011;3471;49.678;8.388;2024-03-29T04:48:38;1328.28;;;999.90;;
6864;SDS011;3471;49.678;8.388;2024-03-29T04:51:06;1374.82;;;999.90;;
6864;SDS011;3471;49.678;8.388;2024-03-29T04:53:32;1338.85;;;999.90;;
6864;SDS011;3471;49.678;8.388;2024-03-29T04:56:00;1331.23;;;999.90;;
6864;SDS011;3471;49.678;8.388;2024-03-29T04:58:26;1340.63;;;999.90;;
6864;SDS011;3471;49.678;8.388;2024-03-29T05:00:52;1319.97;;;999.90;;
6864;SDS011;3471;49.678;8.388;2024-03-29T05:03:18;1306.77;;;999.90;;
6864;SDS011;3471;49.678;8.388;2024-03-29T05:05:44;1302.60;;;999.90;;
6864;SDS011;3471;49.678;8.388;2024-03-29T05:08:10;1367.28;;;999.90;;
6864;SDS011;3471;49.678;8.388;2024-03-29T05:10:36;1369.77;;;999.90;;
6864;SDS011;3471;49.678;8.388;2024-03-29T05:13:02;1315.07;;;999.90;;
6864;SDS011;3471;49.678;8.388;2024-03-29T05:15:28;1367.75;;;999.90;;
6864;SDS011;3471;49.678;8.388;2024-03-29T05:17:54;1314.60;;;999.90;;
6864;SDS011;3471;49.678;8.388;2024-03-29T05:20:19;1344.07;;;999.90;;
6864;SDS011;3471;49.678;8.388;2024-03-29T05:22:45;1304.63;;;999.90;;
6864;SDS011;3471;49.678;8.388;2024-03-29T05:25:11;1299.25;;;999.90;;
6864;SDS011;3471;49.678;8.388;2024-03-29T05:27:36;1305.33;;;999.90;;
6864;SDS011;3471;49.678;8.388;2024-03-29T05:30:02;1331.90;;;999.90;;
6864;SDS011;3471;49.678;8.388;2024-03-29T05:32:28;1287.65;;;999.90;;
6864;SDS011;3471;49.678;8.388;2024-03-29T05:34:54;1304.45;;;999.90;;
6864;SDS011;3471;49.678;8.388;2024-03-29T05:37:20;1320.03;;;999.90;;
6864;SDS011;3471;49.678;8.388;2024-03-29T05:39:47;1346.73;;;999.90;;
6864;SDS011;3471;49.678;8.388;2024-03-29T05:42:12;1344.97;;;999.90;;
6864;SDS011;3471;49.678;8.388;2024-03-29T05:44:38;1377.07;;;999.90;;
6864;SDS011;3471;49.678;8.388;2024-03-29T05:47:03;1309.82;;;999.90;;
6864;SDS011;3471;49.678;8.388;2024-03-29T05:49:32;1315.65;;;999.90;;
6864;SDS011;3471;49.678;8.388;2024-03-29T05:51:58;1347.72;;;999.90;;
6864;SDS011;3471;49.678;8.388;2024-03-29T05:54:24;1327.73;;;999.90;;
6864;SDS011;3471;49.678;8.388;2024-03-29T05:56:49;1316.45;;;999.90;;
6864;SDS011;3471;49.678;8.388;2024-03-29T05:59:15;1329.57;;;999.90;;
6864;SDS011;3471;49.678;8.388;2024-03-29T06:01:41;1307.20;;;999.90;;
6864;SDS011;3471;49.678;8.388;2024-03-29T06:04:07;1304.27;;;999.90;;
6864;SDS011;3471;49.678;8.388;2024-03-29T06:06:40;1343.40;;;999.90;;
6864;SDS011;3471;49.678;8.388;2024-03-29T06:09:06;1319.77;;;999.90;;
6864;SDS011;3471;49.678;8.388;2024-03-29T06:11:32;1320.72;;;999.90;;
6864;SDS011;3471;49.678;8.388;2024-03-29T06:13:57;1291.27;;;999.90;;
6864;SDS011;3471;49.678;8.388;2024-03-29T06:16:24;1293.23;;;999.90;;
6864;SDS011;3471;49.678;8.388;2024-03-29T06:19:09;1338.40;;;999.90;;
6864;SDS011;3471;49.678;8.388;2024-03-29T06:21:35;1314.28;;;999.90;;
6864;SDS011;3471;49.678;8.388;2024-03-29T06:24:07;1279.03;;;999.90;;
6864;SDS011;3471;49.678;8.388;2024-03-29T06:26:37;1333.10;;;999.90;;
6864;SDS011;3471;49.678;8.388;2024-03-29T06:29:03;1323.75;;;999.90;;
6864;SDS011;3471;49.678;8.388;2024-03-29T06:31:29;1319.83;;;999.90;;
6864;SDS011;3471;49.678;8.388;2024-03-29T06:33:55;1322.78;;;999.90;;
6864;SDS011;3471;49.678;8.388;2024-03-29T06:36:22;1326.15;;;999.90;;
6864;SDS011;3471;49.678;8.388;2024-03-29T06:38:48;1309.47;;;999.90;;
6864;SDS011;3471;49.678;8.388;2024-03-29T06:41:14;1312.57;;;999.90;;
6864;SDS011;3471;49.678;8.388;2024-03-29T06:43:41;1314.23;;;999.90;;
6864;SDS011;3471;49.678;8.388;2024-03-29T06:46:09;1317.40;;;999.90;;
6864;SDS011;3471;49.678;8.388;2024-03-29T06:48:35;1329.95;;;999.90;;
6864;SDS011;3471;49.678;8.388;2024-03-29T06:51:01;1308.10;;;999.90;;
6864;SDS011;3471;49.678;8.388;2024-03-29T06:53:27;1312.63;;;999.90;;
6864;SDS011;3471;49.678;8.388;2024-03-29T06:55:54;1355.03;;;999.90;;
6864;SDS011;3471;49.678;8.388;2024-03-29T06:58:21;1333.18;;;999.90;;
6864;SDS011;3471;49.678;8.388;2024-03-29T07:00:49;1353.55;;;999.90;;
6864;SDS011;3471;49.678;8.388;2024-03-29T07:03:16;1346.75;;;999.90;;
6864;SDS011;3471;49.678;8.388;2024-03-29T07:05:47;1336.00;;;999.90;;
6864;SDS011;3471;49.678;8.388;2024-03-29T07:08:13;1359.33;;;999.90;;
6864;SDS011;3471;49.678;8.388;2024-03-29T07:10:38;1356.28;;;999.90;;
6864;SDS011;3471;49.678;8.388;2024-03-29T07:13:06;1363.43;;;999.90;;
6864;SDS011;3471;49.678;8.388;2024-03-29T07:15:32;1333.03;;;999.90;;
6864;SDS011;3471;49.678;8.388;2024-03-29T07:17:57;1347.28;;;999.90;;
6864;SDS011;3471;49.678;8.388;2024-03-29T07:20:23;1334.17;;;999.90;;
6864;SDS011;3471;49.678;8.388;2024-03-29T07:22:50;1359.90;;;999.90;;
6864;SDS011;3471;49.678;8.388;2024-03-29T07:25:15;1342.43;;;999.90;;
6864;SDS011;3471;49.678;8.388;2024-03-29T07:27:41;1359.25;;;999.90;;
6864;SDS011;3471;49.678;8.388;2024-03-29T07:30:07;1363.97;;;999.90;;
6864;SDS011;3471;49.678;8.388;2024-03-29T07:32:33;1366.97;;;999.90;;
6864;SDS011;3471;49.678;8.388;2024-03-29T07:34:59;1367.10;;;999.90;;
6864;SDS011;3471;49.678;8.388;2024-03-29T07:37:25;1381.37;;;999.90;;
6864;SDS011;3471;49.678;8.388;2024-03-29T07:39:51;1378.95;;;999.90;;
6864;SDS011;3471;49.678;8.388;2024-03-29T07:42:16;1366.80;;;999.90;;
6864;SDS011;3471;49.678;8.388;2024-03-29T07:44:42;1379.32;;;999.90;;
6864;SDS011;3471;49.678;8.388;2024-03-29T07:47:08;1361.53;;;999.90;;
6864;SDS011;3471;49.678;8.388;2024-03-29T07:49:33;1368.22;;;999.90;;
6864;SDS011;3471;49.678;8.388;2024-03-29T07:51:59;1379.87;;;999.90;;
6864;SDS011;3471;49.678;8.388;2024-03-29T07:54:27;1360.70;;;999.90;;
6864;SDS011;3471;49.678;8.388;2024-03-29T07:56:53;1387.37;;;999.90;;
6864;SDS011;3471;49.678;8.388;2024-03-29T07:59:18;1334.25;;;999.90;;
6864;SDS011;3471;49.678;8.388;2024-03-29T08:01:44;1349.90;;;999.90;;
6864;SDS011;3471;49.678;8.388;2024-03-29T08:04:10;1375.43;;;999.90;;
6864;SDS011;3471;49.678;8.388;2024-03-29T08:06:36;1391.53;;;999.90;;
6864;SDS011;3471;49.678;8.388;2024-03-29T08:09:01;1378.75;;;999.90;;
6864;SDS011;3471;49.678;8.388;2024-03-29T08:11:27;1371.28;;;999.90;;
6864;SDS011;3471;49.678;8.388;2024-03-29T08:13:53;1396.47;;;999.90;;
6864;SDS011;3471;49.678;8.388;2024-03-29T08:16:18;1370.95;;;999.90;;
6864;SDS011;3471;49.678;8.388;2024-03-29T08:18:45;1357.70;;;999.90;;
6864;SDS011;3471;49.678;8.388;2024-03-29T08:21:12;1376.82;;;999.90;;
6864;SDS011;3471;49.678;8.388;2024-03-29T08:23:38;1363.10;;;999.90;;
6864;SDS011;3471;49.678;8.388;2024-03-29T08:26:05;1402.68;;;999.90;;
6864;SDS011;3471;49.678;8.388;2024-03-29T08:28:30;1376.35;;;999.90;;
6864;SDS011;3471;49.678;8.388;2024-03-29T08:30:59;1396.25;;;999.90;;
6864;SDS011;3471;49.678;8.388;2024-03-29T08:33:26;1375.47;;;999.90;;
6864;SDS011;3471;49.678;8.388;2024-03-29T08:35:52;1361.82;;;999.90;;
6864;SDS011;3471;49.678;8.388;2024-03-29T08:38:17;1383.50;;;999.90;;
6864;SDS011;3471;49.678;8.388;2024-03-29T08:40:43;1362.97;;;999.90;;
6864;SDS011;3471;49.678;8.388;2024-03-29T08:43:11;1378.73;;;999.90;;
6864;SDS011;3471;49.678;8.388;2024-03-29T08:45:37;1374.32;;;999.90;;
6864;SDS011;3471;49.678;8.388;2024-03-29T08:48:06;1397.20;;;999.90;;
6864;SDS011;3471;49.678;8.388;2024-03-29T08:50:35;1385.50;;;999.90;;
6864;SDS011;3471;49.678;8.388;2024-03-29T08:53:02;1394.50;;;999.90;;
6864;SDS011;3471;49.678;8.388;2024-03-29T08:55:28;1339.07;;;999.90;;
6864;SDS011;3471;49.678;8.388;2024-03-29T08:57:57;1385.70;;;999.90;;
6864;SDS011;3471;49.678;8.388;2024-03-29T09:00:24;1388.68;;;999.90;;
6864;SDS011;3471;49.678;8.388;2024-03-29T09:02:53;1375.35;;;999.90;;
6864;SDS011;3471;49.678;8.388;2024-03-29T09:05:19;1383.10;;;999.90;;
6864;SDS011;3471;49.678;8.388;2024-03-29T09:07:45;1383.60;;;999.90;;
6864;SDS011;3471;49.678;8.388;2024-03-29T09:10:11;1393.53;;;999.90;;
6864;SDS011;3471;49.678;8.388;2024-03-29T09:12:37;1382.07;;;999.90;;
6864;SDS011;3471;49.678;8.388;2024-03-29T09:15:03;1362.72;;;999.90;;
6864;SDS011;3471;49.678;8.388;2024-03-29T09:17:33;1395.90;;;999.90;;
6864;SDS011;3471;49.678;8.388;2024-03-29T09:19:59;1394.60;;;999.90;;
6864;SDS011;3471;49.678;8.388;2024-03-29T09:22:25;1389.43;;;999.90;;
6864;SDS011;3471;49.678;8.388;2024-03-29T09:24:50;1385.50;;;999.90;;
6864;SDS011;3471;49.678;8.388;2024-03-29T09:27:16;1365.93;;;999.90;;
6864;SDS011;3471;49.678;8.388;2024-03-29T09:29:42;1347.95;;;999.90;;
6864;SDS011;3471;49.678;8.388;2024-03-29T09:32:08;1361.03;;;999.90;;
6864;SDS011;3471;49.678;8.388;2024-03-29T09:34:33;1332.95;;;999.90;;
6864;SDS011;3471;49.678;8.388;2024-03-29T09:36:59;1349.73;;;999.90;;
6864;SDS011;3471;49.678;8.388;2024-03-29T09:39:25;1363.13;;;999.90;;
6864;SDS011;3471;49.678;8.388;2024-03-29T09:41:50;1338.63;;;999.90;;
6864;SDS011;3471;49.678;8.388;2024-03-29T09:44:18;1326.00;;;999.90;;
6864;SDS011;3471;49.678;8.388;2024-03-29T09:46:46;1340.22;;;999.90;;
6864;SDS011;3471;49.678;8.388;2024-03-29T09:49:12;1289.57;;;999.90;;
6864;SDS011;3471;49.678;8.388;2024-03-29T09:51:39;1335.40;;;999.90;;
6864;SDS011;3471;49.678;8.388;2024-03-29T09:54:06;1330.90;;;999.90;;
6864;SDS011;3471;49.678;8.388;2024-03-29T09:56:36;1324.75;;;999.90;;
6864;SDS011;3471;49.678;8.388;2024-03-29T09:59:03;1339.30;;;999.90;;
6864;SDS011;3471;49.678;8.388;2024-03-29T10:01:28;1305.65;;;999.90;;
6864;SDS011;3471;49.678;8.388;2024-03-29T10:03:55;1321.30;;;999.90;;
6864;SDS011;3471;49.678;8.388;2024-03-29T10:06:23;1319.18;;;999.90;;
6864;SDS011;3471;49.678;8.388;2024-03-29T10:08:49;1278.03;;;999.90;;
6864;SDS011;3471;49.678;8.388;2024-03-29T10:11:16;1300.13;;;999.90;;
6864;SDS011;3471;49.678;8.388;2024-03-29T10:13:43;1336.68;;;999.90;;
6864;SDS011;3471;49.678;8.388;2024-03-29T10:16:10;1337.47;;;999.90;;
6864;SDS011;3471;49.678;8.388;2024-03-29T10:18:37;1288.20;;;999.90;;
6864;SDS011;3471;49.678;8.388;2024-03-29T10:21:06;1307.50;;;999.90;;
6864;SDS011;3471;49.678;8.388;2024-03-29T10:23:32;1316.57;;;999.90;;
6864;SDS011;3471;49.678;8.388;2024-03-29T10:26:00;1338.93;;;999.90;;
6864;SDS011;3471;49.678;8.388;2024-03-29T10:28:30;1342.50;;;999.90;;
6864;SDS011;3471;49.678;8.388;2024-03-29T10:30:58;1356.53;;;999.90;;
6864;SDS011;3471;49.678;8.388;2024-03-29T10:33:27;1344.57;;;999.90;;
6864;SDS011;3471;49.678;8.388;2024-03-29T10:35:54;1364.53;;;999.90;;
6864;SDS011;3471;49.678;8.388;2024-03-29T10:38:27;1346.30;;;999.90;;
6864;SDS011;3471;49.678;8.388;2024-03-29T10:40:53;1343.60;;;999.90;;
6864;SDS011;3471;49.678;8.388;2024-03-29T10:43:19;1364.38;;;999.90;;
6864;SDS011;3471;49.678;8.388;2024-03-29T10:45:49;1371.95;;;999.90;;
6864;SDS011;3471;49.678;8.388;2024-03-29T10:48:19;1366.18;;;999.90;;
6864;SDS011;3471;49.678;8.388;2024-03-29T10:50:46;1376.10;;;999.90;;
6864;SDS011;3471;49.678;8.388;2024-03-29T10:53:13;1373.03;;;999.90;;
6864;SDS011;3471;49.678;8.388;2024-03-29T10:55:40;1414.22;;;999.90;;
6864;SDS011;3471;49.678;8.388;2024-03-29T10:58:10;1386.57;;;999.90;;
6864;SDS011;3471;49.678;8.388;2024-03-29T11:00:44;1413.82;;;999.90;;
6864;SDS011;3471;49.678;8.388;2024-03-29T11:03:13;1269.10;;;999.90;;
6864;SDS011;3471;49.678;8.388;2024-03-29T11:05:49;1313.65;;;999.90;;
6864;SDS011;3471;49.678;8.388;2024-03-29T11:08:22;1319.40;;;999.90;;
6864;SDS011;3471;49.678;8.388;2024-03-29T11:10:49;1271.95;;;999.90;;
6864;SDS011;3471;49.678;8.388;2024-03-29T11:15:45;1231.30;;;999.90;;
6864;SDS011;3471;49.678;8.388;2024-03-29T11:18:13;1325.68;;;999.90;;
6864;SDS011;3471;49.678;8.388;2024-03-29T11:20:42;1330.55;;;999.90;;
6864;SDS011;3471;49.678;8.388;2024-03-29T11:23:16;1324.57;;;999.90;;
6864;SDS011;3471;49.678;8.388;2024-03-29T11:28:09;1271.43;;;999.90;;
6864;SDS011;3471;49.678;8.388;2024-03-29T11:30:45;1216.07;;;999.90;;
6864;SDS011;3471;49.678;8.388;2024-03-29T11:33:30;1239.88;;;999.90;;
6864;SDS011;3471;49.678;8.388;2024-03-29T11:35:59;1300.38;;;999.90;;
6864;SDS011;3471;49.678;8.388;2024-03-29T11:38:34;1292.18;;;999.90;;
6864;SDS011;3471;49.678;8.388;2024-03-29T11:41:03;1310.70;;;999.90;;
6864;SDS011;3471;49.678;8.388;2024-03-29T11:43:31;1266.65;;;999.90;;
6864;SDS011;3471;49.678;8.388;2024-03-29T11:45:58;1242.85;;;999.90;;
6864;SDS011;3471;49.678;8.388;2024-03-29T11:48:26;1246.85;;;999.90;;
6864;SDS011;3471;49.678;8.388;2024-03-29T11:50:53;1309.82;;;999.90;;
6864;SDS011;3471;49.678;8.388;2024-03-29T11:53:19;1272.85;;;999.90;;
6864;SDS011;3471;49.678;8.388;2024-03-29T11:55:46;1252.78;;;999.90;;
6864;SDS011;3471;49.678;8.388;2024-03-29T11:58:18;1271.30;;;999.90;;
6864;SDS011;3471;49.678;8.388;2024-03-29T12:00:44;1320.57;;;999.90;;
6864;SDS011;3471;49.678;8.388;2024-03-29T12:03:12;1381.97;;;999.90;;
6864;SDS011;3471;49.678;8.388;2024-03-29T12:05:38;1382.00;;;999.90;;
6864;SDS011;3471;49.678;8.388;2024-03-29T12:08:04;1376.43;;;999.90;;
6864;SDS011;3471;49.678;8.388;2024-03-29T12:10:30;1361.78;;;999.90;;
6864;SDS011;3471;49.678;8.388;2024-03-29T12:12:56;1398.63;;;999.90;;
6864;SDS011;3471;49.678;8.388;2024-03-29T12:15:27;1344.13;;;999.90;;
6864;SDS011;3471;49.678;8.388;2024-03-29T12:18:03;1355.85;;;999.90;;
6864;SDS011;3471;49.678;8.388;2024-03-29T12:20:30;1337.25;;;999.90;;
6864;SDS011;3471;49.678;8.388;2024-03-29T12:23:00;1343.17;;;999.90;;
6864;SDS011;3471;49.678;8.388;2024-03-29T12:25:27;1305.40;;;999.90;;
6864;SDS011;3471;49.678;8.388;2024-03-29T12:27:54;1294.00;;;999.90;;
6864;SDS011;3471;49.678;8.388;2024-03-29T12:30:19;1290.15;;;999.90;;
6864;SDS011;3471;49.678;8.388;2024-03-29T12:32:45;1285.57;;;999.90;;
6864;SDS011;3471;49.678;8.388;2024-03-29T12:35:12;1213.68;;;999.90;;
6864;SDS011;3471;49.678;8.388;2024-03-29T12:37:50;1241.50;;;999.90;;
6864;SDS011;3471;49.678;8.388;2024-03-29T12:40:16;1200.88;;;999.90;;
6864;SDS011;3471;49.678;8.388;2024-03-29T12:42:47;1206.43;;;999.90;;
6864;SDS011;3471;49.678;8.388;2024-03-29T12:45:13;1297.78;;;999.90;;
6864;SDS011;3471;49.678;8.388;2024-03-29T12:47:39;1265.67;;;999.90;;
6864;SDS011;3471;49.678;8.388;2024-03-29T12:50:30;1270.47;;;999.90;;
6864;SDS011;3471;49.678;8.388;2024-03-29T12:52:58;1210.30;;;999.90;;
6864;SDS011;3471;49.678;8.388;2024-03-29T12:55:25;1270.20;;;999.90;;
6864;SDS011;3471;49.678;8.388;2024-03-29T12:58:04;1209.60;;;999.90;;
6864;SDS011;3471;49.678;8.388;2024-03-29T13:00:33;1233.55;;;999.90;;
6864;SDS011;3471;49.678;8.388;2024-03-29T13:02:59;1210.13;;;999.90;;
6864;SDS011;3471;49.678;8.388;2024-03-29T13:05:25;1212.65;;;999.90;;
6864;SDS011;3471;49.678;8.388;2024-03-29T13:07:52;1264.82;;;999.90;;
6864;SDS011;3471;49.678;8.388;2024-03-29T13:10:18;1259.20;;;999.90;;
6864;SDS011;3471;49.678;8.388;2024-03-29T13:12:46;1303.25;;;999.90;;
6864;SDS011;3471;49.678;8.388;2024-03-29T13:15:16;1320.13;;;999.90;;
6864;SDS011;3471;49.678;8.388;2024-03-29T13:17:42;1326.85;;;999.90;;
6864;SDS011;3471;49.678;8.388;2024-03-29T13:20:08;1340.18;;;999.90;;
6864;SDS011;3471;49.678;8.388;2024-03-29T13:22:35;1376.43;;;999.90;;
6864;SDS011;3471;49.678;8.388;2024-03-29T13:25:00;1363.35;;;999.90;;
6864;SDS011;3471;49.678;8.388;2024-03-29T13:27:26;1395.03;;;999.90;;
6864;SDS011;3471;49.678;8.388;2024-03-29T13:29:52;1389.20;;;999.90;;
6864;SDS011;3471;49.678;8.388;2024-03-29T13:32:18;1418.07;;;999.90;;
6864;SDS011;3471;49.678;8.388;2024-03-29T13:34:43;1414.00;;;999.90;;
6864;SDS011;3471;49.678;8.388;2024-03-29T13:37:09;1387.67;;;999.90;;
6864;SDS011;3471;49.678;8.388;2024-03-29T13:39:34;1391.78;;;999.90;;
6864;SDS011;3471;49.678;8.388;2024-03-29T13:42:00;1405.45;;;999.90;;
6864;SDS011;3471;49.678;8.388;2024-03-29T13:44:25;1409.70;;;999.90;;
6864;SDS011;3471;49.678;8.388;2024-03-29T13:46:51;1407.00;;;999.90;;
6864;SDS011;3471;49.678;8.388;2024-03-29T13:49:17;1416.25;;;999.90;;
6864;SDS011;3471;49.678;8.388;2024-03-29T13:51:45;1407.05;;;999.90;;
6864;SDS011;3471;49.678;8.388;2024-03-29T13:54:12;1437.53;;;999.90;;
6864;SDS011;3471;49.678;8.388;2024-03-29T13:56:37;1427.03;;;999.90;;
6864;SDS011;3471;49.678;8.388;2024-03-29T13:59:03;1422.43;;;999.90;;
6864;SDS011;3471;49.678;8.388;2024-03-29T14:01:28;1422.53;;;999.90;;
6864;SDS011;3471;49.678;8.388;2024-03-29T14:03:54;1428.57;;;999.90;;
6864;SDS011;3471;49.678;8.388;2024-03-29T14:06:20;1366.57;;;999.90;;
6864;SDS011;3471;49.678;8.388;2024-03-29T14:08:46;1364.40;;;999.90;;
6864;SDS011;3471;49.678;8.388;2024-03-29T14:11:12;1347.00;;;999.90;;